sensor_id;sensor_type;location;lat;lon;timestamp;pressure;altitude;pressure_sealevel;temperature;humidity
16580;BME280;8402;51.466;6.806;2022-10-17T00:00:12;101413.69;;;16.56;95.62
16580;BME280;8402;51.466;6.806;2022-10-17T00:02:41;101411.97;;;16.51;95.89
16580;BME280;8402;51.466;6.806;2022-10-17T00:05:09;101413.44;;;16.49;95.27
16580;BME280;8402;51.466;6.806;2022-10-17T00:07:37;101407.84;;;16.45;95.36
16580;BME280;8402;51.466;6.806;2022-10-17T00:10:06;101416.72;;;16.42;95.60
16580;BME280;8402;51.466;6.806;2022-10-17T00:12:34;101413.88;;;16.39;95.72
16580;BME280;8402;51.466;6.806;2022-10-17T00:15:04;101411.47;;;16.37;95.84
16580;BME280;8402;51.466;6.806;2022-10-17T00:17:32;101409.72;;;16.33;95.70
16580;BME280;8402;51.466;6.806;2022-10-17T00:20:02;101414.28;;;16.29;96.18
16580;BME280;8402;51.466;6.806;2022-10-17T00:22:29;101410.63;;;16.24;95.92
16580;BME280;8402;51.466;6.806;2022-10-17T00:24:57;101409.38;;;16.22;96.04
16580;BME280;8402;51.466;6.806;2022-10-17T00:27:25;101405.34;;;16.19;96.19
16580;BME280;8402;51.466;6.806;2022-10-17T00:29:53;101406.81;;;16.17;96.19
16580;BME280;8402;51.466;6.806;2022-10-17T00:32:21;101396.53;;;16.14;96.46
16580;BME280;8402;51.466;6.806;2022-10-17T00:34:49;101400.75;;;16.11;96.34
16580;BME280;8402;51.466;6.806;2022-10-17T00:37:18;101395.94;;;16.08;96.29
16580;BME280;8402;51.466;6.806;2022-10-17T00:39:46;101395.16;;;16.08;96.56
16580;BME280;8402;51.466;6.806;2022-10-17T00:42:14;101397.41;;;16.06;96.31
16580;BME280;8402;51.466;6.806;2022-10-17T00:45:14;101392.47;;;15.99;96.15
16580;BME280;8402;51.466;6.806;2022-10-17T00:47:46;101394.88;;;16.01;96.62
16580;BME280;8402;51.466;6.806;2022-10-17T00:50:15;101390.88;;;15.98;96.31
16580;BME280;8402;51.466;6.806;2022-10-17T00:52:46;101390.41;;;15.96;96.93
16580;BME280;8402;51.466;6.806;2022-10-17T00:55:18;101386.41;;;15.93;96.53
16580;BME280;8402;51.466;6.806;2022-10-17T00:57:47;101389.47;;;15.92;97.14
16580;BME280;8402;51.466;6.806;2022-10-17T01:00:16;101397.22;;;15.90;97.16
16580;BME280;8402;51.466;6.806;2022-10-17T01:02:44;101385.81;;;15.88;97.92
16580;BME280;8402;51.466;6.806;2022-10-17T01:05:13;101385.00;;;15.87;98.28
16580;BME280;8402;51.466;6.806;2022-10-17T01:07:42;101385.31;;;15.86;97.97
16580;BME280;8402;51.466;6.806;2022-10-17T01:10:12;101391.94;;;15.85;99.14
16580;BME280;8402;51.466;6.806;2022-10-17T01:12:51;101388.28;;;15.81;99.55
16580;BME280;8402;51.466;6.806;2022-10-17T01:15:32;101389.88;;;15.82;100.00
16580;BME280;8402;51.466;6.806;2022-10-17T01:18:12;101387.59;;;15.84;100.00
16580;BME280;8402;51.466;6.806;2022-10-17T01:21:16;101386.00;;;15.83;100.00
16580;BME280;8402;51.466;6.806;2022-10-17T01:24:18;101375.31;;;15.90;100.00
16580;BME280;8402;51.466;6.806;2022-10-17T01:27:26;101381.75;;;15.94;100.00
16580;BME280;8402;51.466;6.806;2022-10-17T01:30:14;101379.72;;;16.03;100.00
16580;BME280;8402;51.466;6.806;2022-10-17T01:32:55;101385.47;;;16.10;100.00
16580;BME280;8402;51.466;6.806;2022-10-17T01:35:29;101383.44;;;16.19;100.00
16580;BME280;8402;51.466;6.806;2022-10-17T01:38:06;101384.50;;;16.27;100.00
16580;BME280;8402;51.466;6.806;2022-10-17T01:40:41;101389.06;;;16.35;100.00
16580;BME280;8402;51.466;6.806;2022-10-17T01:43:15;101371.66;;;16.40;100.00
16580;BME280;8402;51.466;6.806;2022-10-17T01:45:50;101375.44;;;16.47;100.00
16580;BME280;8402;51.466;6.806;2022-10-17T01:48:23;101378.41;;;16.55;100.00
16580;BME280;8402;51.466;6.806;2022-10-17T01:50:55;101369.66;;;16.61;100.00
16580;BME280;8402;51.466;6.806;2022-10-17T01:53:29;101373.31;;;16.65;100.00
16580;BME280;8402;51.466;6.806;2022-10-17T01:56:00;101368.78;;;16.69;100.00
16580;BME280;8402;51.466;6.806;2022-10-17T01:58:31;101363.44;;;16.73;100.00
16580;BME280;8402;51.466;6.806;2022-10-17T02:01:03;101358.97;;;16.81;100.00
16580;BME280;8402;51.466;6.806;2022-10-17T02:03:34;101350.53;;;16.86;100.00
16580;BME280;8402;51.466;6.806;2022-10-17T02:06:02;101346.75;;;16.90;100.00
16580;BME280;8402;51.466;6.806;2022-10-17T02:08:40;101345.63;;;16.91;100.00
16580;BME280;8402;51.466;6.806;2022-10-17T02:11:13;101353.97;;;16.95;100.00
16580;BME280;8402;51.466;6.806;2022-10-17T02:13:51;101344.59;;;16.96;100.00
16580;BME280;8402;51.466;6.806;2022-10-17T02:16:33;101340.72;;;16.97;100.00
16580;BME280;8402;51.466;6.806;2022-10-17T02:19:15;101340.84;;;17.00;100.00
16580;BME280;8402;51.466;6.806;2022-10-17T02:21:52;101338.66;;;17.06;100.00
16580;BME280;8402;51.466;6.806;2022-10-17T02:24:28;101342.66;;;17.09;100.00
16580;BME280;8402;51.466;6.806;2022-10-17T02:27:05;101336.47;;;17.12;100.00
16580;BME280;8402;51.466;6.806;2022-10-17T02:29:39;101345.94;;;17.14;100.00
16580;BME280;8402;51.466;6.806;2022-10-17T02:32:12;101346.78;;;17.15;100.00
16580;BME280;8402;51.466;6.806;2022-10-17T02:34:46;101346.44;;;17.16;100.00
16580;BME280;8402;51.466;6.806;2022-10-17T02:37:18;101345.94;;;17.14;100.00
16580;BME280;8402;51.466;6.806;2022-10-17T02:39:50;101349.53;;;17.15;100.00
16580;BME280;8402;51.466;6.806;2022-10-17T02:42:18;101343.22;;;17.14;100.00
16580;BME280;8402;51.466;6.806;2022-10-17T02:44:48;101341.63;;;17.13;100.00
16580;BME280;8402;51.466;6.806;2022-10-17T02:47:20;101345.06;;;17.10;100.00
16580;BME280;8402;51.466;6.806;2022-10-17T02:49:52;101346.56;;;17.08;100.00
16580;BME280;8402;51.466;6.806;2022-10-17T02:52:25;101345.72;;;17.07;100.00
16580;BME280;8402;51.466;6.806;2022-10-17T02:54:58;101345.72;;;17.07;100.00
16580;BME280;8402;51.466;6.806;2022-10-17T02:57:30;101338.66;;;17.06;100.00
16580;BME280;8402;51.466;6.806;2022-10-17T03:00:01;101344.94;;;17.06;100.00
16580;BME280;8402;51.466;6.806;2022-10-17T03:02:37;101342.97;;;17.07;100.00
16580;BME280;8402;51.466;6.806;2022-10-17T03:05:08;101338.78;;;17.10;100.00
16580;BME280;8402;51.466;6.806;2022-10-17T03:07:36;101336.38;;;17.08;100.00
16580;BME280;8402;51.466;6.806;2022-10-17T03:10:05;101332.50;;;17.09;100.00
16580;BME280;8402;51.466;6.806;2022-10-17T03:12:32;101337.28;;;17.12;100.00
16580;BME280;8402;51.466;6.806;2022-10-17T03:15:00;101338.88;;;17.13;100.00
16580;BME280;8402;51.466;6.806;2022-10-17T03:17:28;101345.94;;;17.14;100.00
16580;BME280;8402;51.466;6.806;2022-10-17T03:19:56;101344.34;;;17.13;100.00
16580;BME280;8402;51.466;6.806;2022-10-17T03:22:25;101348.69;;;17.14;100.00
16580;BME280;8402;51.466;6.806;2022-10-17T03:24:54;101347.09;;;17.13;100.00
16580;BME280;8402;51.466;6.806;2022-10-17T03:27:21;101343.56;;;17.13;100.00
16580;BME280;8402;51.466;6.806;2022-10-17T03:29:49;101349.84;;;17.13;100.00
16580;BME280;8402;51.466;6.806;2022-10-17T03:32:17;101349.84;;;17.13;100.00
16580;BME280;8402;51.466;6.806;2022-10-17T03:34:45;101359.66;;;17.14;100.00
16580;BME280;8402;51.466;6.806;2022-10-17T03:37:13;101367.44;;;17.12;100.00
16580;BME280;8402;51.466;6.806;2022-10-17T03:39:42;101357.75;;;17.15;100.00
16580;BME280;8402;51.466;6.806;2022-10-17T03:42:09;101355.81;;;17.15;100.00
16580;BME280;8402;51.466;6.806;2022-10-17T03:44:37;101357.41;;;17.16;100.00
16580;BME280;8402;51.466;6.806;2022-10-17T03:47:05;101355.44;;;17.17;100.00
16580;BME280;8402;51.466;6.806;2022-10-17T03:49:37;101360.13;;;17.16;100.00
16580;BME280;8402;51.466;6.806;2022-10-17T03:52:05;101367.31;;;17.21;100.00
16580;BME280;8402;51.466;6.806;2022-10-17T03:54:33;101365.84;;;17.23;100.00
16580;BME280;8402;51.466;6.806;2022-10-17T03:57:02;101368.81;;;17.30;100.00
16580;BME280;8402;51.466;6.806;2022-10-17T03:59:30;101366.16;;;17.34;100.00
16580;BME280;8402;51.466;6.806;2022-10-17T04:01:58;101378.41;;;17.37;100.00
16580;BME280;8402;51.466;6.806;2022-10-17T04:04:26;101380.91;;;17.42;100.00
16580;BME280;8402;51.466;6.806;2022-10-17T04:06:54;101386.88;;;17.44;100.00
16580;BME280;8402;51.466;6.806;2022-10-17T04:09:21;101384.56;;;17.46;100.00
16580;BME280;8402;51.466;6.806;2022-10-17T04:11:49;101393.25;;;17.48;100.00
16580;BME280;8402;51.466;6.806;2022-10-17T04:14:19;101383.88;;;17.49;100.00
16580;BME280;8402;51.466;6.806;2022-10-17T04:16:46;101384.66;;;17.49;100.00
16580;BME280;8402;51.466;6.806;2022-10-17T04:19:14;101383.19;;;17.52;100.00
16580;BME280;8402;51.466;6.806;2022-10-17T04:21:42;101382.50;;;17.55;100.00
16580;BME280;8402;51.466;6.806;2022-10-17T04:24:10;101382.94;;;17.57;100.00
16580;BME280;8402;51.466;6.806;2022-10-17T04:26:38;101386.50;;;17.57;100.00
16580;BME280;8402;51.466;6.806;2022-10-17T04:29:06;101378.03;;;17.63;100.00
16580;BME280;8402;51.466;6.806;2022-10-17T04:31:35;101384.31;;;17.63;100.00
16580;BME280;8402;51.466;6.806;2022-10-17T04:34:03;101388.66;;;17.64;100.00
16580;BME280;8402;51.466;6.806;2022-10-17T04:36:31;101376.53;;;17.65;100.00
16580;BME280;8402;51.466;6.806;2022-10-17T04:38:59;101377.44;;;17.69;100.00
16580;BME280;8402;51.466;6.806;2022-10-17T04:41:28;101375.16;;;17.71;100.00
16580;BME280;8402;51.466;6.806;2022-10-17T04:43:56;101375.63;;;17.73;100.00
16580;BME280;8402;51.466;6.806;2022-10-17T04:46:24;101380.78;;;17.75;100.00
16580;BME280;8402;51.466;6.806;2022-10-17T04:48:53;101383.88;;;17.73;100.00
16580;BME280;8402;51.466;6.806;2022-10-17T04:51:21;101390.50;;;17.72;100.00
16580;BME280;8402;51.466;6.806;2022-10-17T04:53:52;101390.00;;;17.70;100.00
16580;BME280;8402;51.466;6.806;2022-10-17T04:56:21;101392.31;;;17.68;100.00
16580;BME280;8402;51.466;6.806;2022-10-17T04:58:49;101392.31;;;17.68;100.00
16580;BME280;8402;51.466;6.806;2022-10-17T05:01:19;101394.59;;;17.66;100.00
16580;BME280;8402;51.466;6.806;2022-10-17T05:03:47;101393.00;;;17.65;100.00
16580;BME280;8402;51.466;6.806;2022-10-17T05:06:17;101391.38;;;17.64;100.00
16580;BME280;8402;51.466;6.806;2022-10-17T05:08:46;101396.06;;;17.64;100.00
16580;BME280;8402;51.466;6.806;2022-10-17T05:11:16;101404.78;;;17.66;100.00
16580;BME280;8402;51.466;6.806;2022-10-17T05:13:49;101397.78;;;17.68;100.00
16580;BME280;8402;51.466;6.806;2022-10-17T05:16:17;101409.22;;;17.70;100.00
16580;BME280;8402;51.466;6.806;2022-10-17T05:18:47;101414.25;;;17.68;100.00
16580;BME280;8402;51.466;6.806;2022-10-17T05:21:20;101411.06;;;17.66;100.00
16580;BME280;8402;51.466;6.806;2022-10-17T05:23:49;101407.63;;;17.69;100.00
16580;BME280;8402;51.466;6.806;2022-10-17T05:26:18;101411.53;;;17.68;100.00
16580;BME280;8402;51.466;6.806;2022-10-17T05:28:46;101404.09;;;17.69;100.00
16580;BME280;8402;51.466;6.806;2022-10-17T05:31:14;101414.25;;;17.68;100.00
16580;BME280;8402;51.466;6.806;2022-10-17T05:33:42;101427.63;;;17.70;100.00
16580;BME280;8402;51.466;6.806;2022-10-17T05:36:09;101432.31;;;17.69;100.00
16580;BME280;8402;51.466;6.806;2022-10-17T05:38:39;101440.91;;;17.68;100.00
16580;BME280;8402;51.466;6.806;2022-10-17T05:41:08;101438.53;;;17.66;100.00
16580;BME280;8402;51.466;6.806;2022-10-17T05:43:36;101445.59;;;17.67;100.00
16580;BME280;8402;51.466;6.806;2022-10-17T05:46:04;101444.44;;;17.68;100.00
16580;BME280;8402;51.466;6.806;2022-10-17T05:48:33;101451.22;;;17.71;100.00
16580;BME280;8402;51.466;6.806;2022-10-17T05:51:04;101439.41;;;17.70;100.00
16580;BME280;8402;51.466;6.806;2022-10-17T05:53:34;101430.06;;;17.71;100.00
16580;BME280;8402;51.466;6.806;2022-10-17T05:56:06;101428.59;;;17.74;100.00
16580;BME280;8402;51.466;6.806;2022-10-17T05:58:34;101430.06;;;17.71;100.00
16580;BME280;8402;51.466;6.806;2022-10-17T06:01:16;101433.91;;;17.70;100.00
16580;BME280;8402;51.466;6.806;2022-10-17T06:03:44;101441.97;;;17.75;100.00
16580;BME280;8402;51.466;6.806;2022-10-17T06:06:13;101438.84;;;17.77;100.00
16580;BME280;8402;51.466;6.806;2022-10-17T06:08:41;101437.84;;;17.81;100.00
16580;BME280;8402;51.466;6.806;2022-10-17T06:11:11;101446.50;;;17.83;100.00
16580;BME280;8402;51.466;6.806;2022-10-17T06:13:40;101444.69;;;17.87;100.00
16580;BME280;8402;51.466;6.806;2022-10-17T06:16:07;101447.09;;;17.89;100.00
16580;BME280;8402;51.466;6.806;2022-10-17T06:18:35;101451.88;;;17.92;100.00
16580;BME280;8402;51.466;6.806;2022-10-17T06:21:05;101452.66;;;17.93;100.00
16580;BME280;8402;51.466;6.806;2022-10-17T06:23:33;101460.69;;;17.98;100.00
16580;BME280;8402;51.466;6.806;2022-10-17T06:26:03;101472.47;;;17.98;100.00
16580;BME280;8402;51.466;6.806;2022-10-17T06:28:33;101465.50;;;18.01;100.00
16580;BME280;8402;51.466;6.806;2022-10-17T06:31:04;101470.28;;;18.04;100.00
16580;BME280;8402;51.466;6.806;2022-10-17T06:33:32;101472.66;;;18.05;100.00
16580;BME280;8402;51.466;6.806;2022-10-17T06:36:00;101469.56;;;18.07;100.00
16580;BME280;8402;51.466;6.806;2022-10-17T06:38:28;101461.81;;;18.09;100.00
16580;BME280;8402;51.466;6.806;2022-10-17T06:41:02;101464.19;;;18.10;100.00
16580;BME280;8402;51.466;6.806;2022-10-17T06:43:30;101459.63;;;18.14;100.00
16580;BME280;8402;51.466;6.806;2022-10-17T06:45:59;101469.09;;;18.17;100.00
16580;BME280;8402;51.466;6.806;2022-10-17T06:48:27;101470.34;;;18.20;100.00
16580;BME280;8402;51.466;6.806;2022-10-17T06:50:57;101475.47;;;18.21;100.00
16580;BME280;8402;51.466;6.806;2022-10-17T06:53:26;101485.00;;;18.24;100.00
16580;BME280;8402;51.466;6.806;2022-10-17T06:55:54;101495.19;;;18.23;100.00
16580;BME280;8402;51.466;6.806;2022-10-17T06:58:27;101492.44;;;18.23;100.00
16580;BME280;8402;51.466;6.806;2022-10-17T07:00:59;101497.13;;;18.23;100.00
16580;BME280;8402;51.466;6.806;2022-10-17T07:03:27;101501.81;;;18.22;100.00
16580;BME280;8402;51.466;6.806;2022-10-17T07:05:55;101503.06;;;18.25;100.00
16580;BME280;8402;51.466;6.806;2022-10-17T07:08:24;101499.88;;;18.23;100.00
16580;BME280;8402;51.466;6.806;2022-10-17T07:10:52;101504.56;;;18.22;99.75
16580;BME280;8402;51.466;6.806;2022-10-17T07:13:20;101504.56;;;18.22;99.93
16580;BME280;8402;51.466;6.806;2022-10-17T07:15:47;101507.75;;;18.24;99.91
16580;BME280;8402;51.466;6.806;2022-10-17T07:18:17;101495.63;;;18.25;99.81
16580;BME280;8402;51.466;6.806;2022-10-17T07:20:51;101499.53;;;18.24;99.96
16580;BME280;8402;51.466;6.806;2022-10-17T07:23:19;101505.91;;;18.28;100.00
16580;BME280;8402;51.466;6.806;2022-10-17T07:25:47;101498.59;;;18.32;99.76
16580;BME280;8402;51.466;6.806;2022-10-17T07:28:15;101500.31;;;18.37;99.97
16580;BME280;8402;51.466;6.806;2022-10-17T07:30:43;101504.72;;;18.41;99.30
16580;BME280;8402;51.466;6.806;2022-10-17T07:33:18;101505.72;;;18.49;99.71
16580;BME280;8402;51.466;6.806;2022-10-17T07:35:46;101503.97;;;18.57;99.42
16580;BME280;8402;51.466;6.806;2022-10-17T07:38:14;101512.94;;;18.66;99.13
16580;BME280;8402;51.466;6.806;2022-10-17T07:40:42;101508.31;;;18.70;98.76
16580;BME280;8402;51.466;6.806;2022-10-17T07:43:10;101517.03;;;18.72;98.95
16580;BME280;8402;51.466;6.806;2022-10-17T07:45:39;101514.00;;;18.77;98.64
16580;BME280;8402;51.466;6.806;2022-10-17T07:48:07;101514.91;;;18.81;98.46
16580;BME280;8402;51.466;6.806;2022-10-17T07:50:37;101509.88;;;18.83;98.35
16580;BME280;8402;51.466;6.806;2022-10-17T07:53:05;101514.22;;;18.84;98.64
16580;BME280;8402;51.466;6.806;2022-10-17T07:55:33;101511.56;;;18.88;98.62
16580;BME280;8402;51.466;6.806;2022-10-17T07:58:03;101508.53;;;18.93;98.02
16580;BME280;8402;51.466;6.806;2022-10-17T08:00:31;101507.50;;;18.97;98.21
16580;BME280;8402;51.466;6.806;2022-10-17T08:02:59;101517.09;;;19.04;98.13
16580;BME280;8402;51.466;6.806;2022-10-17T08:05:27;101532.88;;;19.07;98.03
16580;BME280;8402;51.466;6.806;2022-10-17T08:07:57;101537.78;;;19.13;97.89
16580;BME280;8402;51.466;6.806;2022-10-17T08:10:24;101541.06;;;19.19;97.70
16580;BME280;8402;51.466;6.806;2022-10-17T08:12:55;101535.75;;;19.26;97.80
16580;BME280;8402;51.466;6.806;2022-10-17T08:15:24;101542.25;;;19.34;97.15
16580;BME280;8402;51.466;6.806;2022-10-17T08:17:57;101542.78;;;19.39;96.86
16580;BME280;8402;51.466;6.806;2022-10-17T08:20:25;101549.63;;;19.45;95.82
16580;BME280;8402;51.466;6.806;2022-10-17T08:22:54;101558.06;;;19.52;95.50
16580;BME280;8402;51.466;6.806;2022-10-17T08:25:23;101563.34;;;19.58;95.34
16580;BME280;8402;51.466;6.806;2022-10-17T08:27:51;101561.91;;;19.64;94.28
16580;BME280;8402;51.466;6.806;2022-10-17T08:30:19;101560.41;;;19.66;94.85
16580;BME280;8402;51.466;6.806;2022-10-17T08:32:47;101557.03;;;19.73;95.21
16580;BME280;8402;51.466;6.806;2022-10-17T08:35:14;101561.53;;;19.81;94.61
16580;BME280;8402;51.466;6.806;2022-10-17T08:37:42;101549.44;;;19.86;94.44
16580;BME280;8402;51.466;6.806;2022-10-17T08:40:16;101560.19;;;19.91;93.91
16580;BME280;8402;51.466;6.806;2022-10-17T08:43:01;101564.63;;;19.95;93.73
16580;BME280;8402;51.466;6.806;2022-10-17T08:45:34;101577.00;;;20.01;93.75
16580;BME280;8402;51.466;6.806;2022-10-17T08:48:04;101566.03;;;20.05;92.75
16580;BME280;8402;51.466;6.806;2022-10-17T08:50:37;101577.94;;;20.09;93.15
16580;BME280;8402;51.466;6.806;2022-10-17T08:53:14;101581.22;;;20.15;92.67
16580;BME280;8402;51.466;6.806;2022-10-17T08:55:45;101583.78;;;20.23;92.07
16580;BME280;8402;51.466;6.806;2022-10-17T08:58:19;101583.16;;;20.30;92.01
16580;BME280;8402;51.466;6.806;2022-10-17T09:00:54;101580.09;;;20.35;90.23
16580;BME280;8402;51.466;6.806;2022-10-17T09:03:37;101591.13;;;20.35;91.19
16580;BME280;8402;51.466;6.806;2022-10-17T09:06:14;101591.28;;;20.42;91.80
16580;BME280;8402;51.466;6.806;2022-10-17T09:08:53;101601.78;;;20.52;91.30
16580;BME280;8402;51.466;6.806;2022-10-17T09:11:37;101608.91;;;20.53;90.34
16580;BME280;8402;51.466;6.806;2022-10-17T09:17:14;101611.38;;;20.58;90.34
16580;BME280;8402;51.466;6.806;2022-10-17T09:19:57;101618.63;;;20.67;89.56
16580;BME280;8402;51.466;6.806;2022-10-17T09:22:29;101609.25;;;20.71;90.33
16580;BME280;8402;51.466;6.806;2022-10-17T09:25:03;101612.53;;;20.77;89.20
16580;BME280;8402;51.466;6.806;2022-10-17T09:27:34;101612.25;;;20.82;90.14
16580;BME280;8402;51.466;6.806;2022-10-17T09:30:19;101618.94;;;20.81;89.40
16580;BME280;8402;51.466;6.806;2022-10-17T09:33:10;101626.19;;;20.89;90.28
16580;BME280;8402;51.466;6.806;2022-10-17T09:35:59;101633.31;;;20.90;89.60
16580;BME280;8402;51.466;6.806;2022-10-17T09:38:35;101648.31;;;20.93;89.69
16580;BME280;8402;51.466;6.806;2022-10-17T09:41:06;101654.63;;;20.93;89.91
16580;BME280;8402;51.466;6.806;2022-10-17T09:44:15;101653.84;;;20.93;89.08
16580;BME280;8402;51.466;6.806;2022-10-17T09:46:54;101659.44;;;20.96;89.67
16580;BME280;8402;51.466;6.806;2022-10-17T09:49:31;101668.16;;;20.98;88.74
16580;BME280;8402;51.466;6.806;2022-10-17T09:51:59;101666.56;;;20.97;88.04
16580;BME280;8402;51.466;6.806;2022-10-17T09:54:35;101659.44;;;20.96;88.75
16580;BME280;8402;51.466;6.806;2022-10-17T09:57:07;101669.69;;;20.96;88.73
16580;BME280;8402;51.466;6.806;2022-10-17T09:59:37;101674.47;;;20.99;89.29
16580;BME280;8402;51.466;6.806;2022-10-17T10:02:15;101676.84;;;21.00;89.29
16580;BME280;8402;51.466;6.806;2022-10-17T10:04:55;101678.47;;;21.01;89.28
16580;BME280;8402;51.466;6.806;2022-10-17T10:07:34;101676.16;;;21.03;89.61
16580;BME280;8402;51.466;6.806;2022-10-17T10:10:04;101688.41;;;21.06;89.50
16580;BME280;8402;51.466;6.806;2022-10-17T10:12:36;101686.13;;;21.08;89.37
16580;BME280;8402;51.466;6.806;2022-10-17T10:15:29;101703.31;;;21.01;87.66
16580;BME280;8402;51.466;6.806;2022-10-17T10:18:00;101695.19;;;21.08;89.12
16580;BME280;8402;51.466;6.806;2022-10-17T10:20:31;101695.19;;;21.08;88.95
16580;BME280;8402;51.466;6.806;2022-10-17T10:23:11;101688.78;;;21.04;88.30
16580;BME280;8402;51.466;6.806;2022-10-17T10:25:51;101688.78;;;21.04;87.85
16580;BME280;8402;51.466;6.806;2022-10-17T10:28:23;101688.94;;;21.11;88.80
16580;BME280;8402;51.466;6.806;2022-10-17T10:30:53;101693.72;;;21.14;88.08
16580;BME280;8402;51.466;6.806;2022-10-17T10:33:26;101689.44;;;21.17;87.81
16580;BME280;8402;51.466;6.806;2022-10-17T10:36:00;101697.06;;;21.24;88.06
16580;BME280;8402;51.466;6.806;2022-10-17T10:38:30;101697.25;;;21.31;88.07
16580;BME280;8402;51.466;6.806;2022-10-17T10:41:02;101704.06;;;21.37;88.16
16580;BME280;8402;51.466;6.806;2022-10-17T10:43:34;101713.28;;;21.45;88.42
16580;BME280;8402;51.466;6.806;2022-10-17T10:46:05;101728.47;;;21.54;88.47
16580;BME280;8402;51.466;6.806;2022-10-17T10:48:52;101741.09;;;21.55;87.17
16580;BME280;8402;51.466;6.806;2022-10-17T10:51:24;101739.94;;;21.56;87.93
16580;BME280;8402;51.466;6.806;2022-10-17T10:54:02;101752.00;;;21.48;87.05
16580;BME280;8402;51.466;6.806;2022-10-17T10:56:36;101769.47;;;21.52;87.62
16580;BME280;8402;51.466;6.806;2022-10-17T10:59:09;101768.56;;;21.48;86.81
16580;BME280;8402;51.466;6.806;2022-10-17T11:01:45;101771.63;;;21.43;87.27
16580;BME280;8402;51.466;6.806;2022-10-17T11:04:25;101758.56;;;21.40;86.83
16580;BME280;8402;51.466;6.806;2022-10-17T11:07:00;101752.59;;;21.38;87.04
16580;BME280;8402;51.466;6.806;2022-10-17T11:09:41;101756.97;;;21.39;87.40
16580;BME280;8402;51.466;6.806;2022-10-17T11:12:16;101755.78;;;21.40;88.41
16580;BME280;8402;51.466;6.806;2022-10-17T11:14:50;101752.16;;;21.36;88.76
16580;BME280;8402;51.466;6.806;2022-10-17T11:17:26;101743.38;;;21.30;88.58
16580;BME280;8402;51.466;6.806;2022-10-17T11:20:09;101736.94;;;21.26;88.70
16580;BME280;8402;51.466;6.806;2022-10-17T11:22:42;101723.25;;;21.30;89.73
16580;BME280;8402;51.466;6.806;2022-10-17T11:25:23;101723.25;;;21.30;89.23
16580;BME280;8402;51.466;6.806;2022-10-17T11:27:55;101709.09;;;21.31;90.32
16580;BME280;8402;51.466;6.806;2022-10-17T11:30:38;101710.59;;;21.29;90.52
16580;BME280;8402;51.466;6.806;2022-10-17T11:33:09;101720.50;;;21.30;90.94
16580;BME280;8402;51.466;6.806;2022-10-17T11:35:43;101715.41;;;21.32;91.25
16580;BME280;8402;51.466;6.806;2022-10-17T11:38:16;101729.63;;;21.34;91.34
16580;BME280;8402;51.466;6.806;2022-10-17T11:40:49;101751.00;;;21.37;91.32
16580;BME280;8402;51.466;6.806;2022-10-17T11:43:22;101745.53;;;21.40;91.38
16580;BME280;8402;51.466;6.806;2022-10-17T11:45:57;101756.69;;;21.44;91.49
16580;BME280;8402;51.466;6.806;2022-10-17T11:48:29;101762.63;;;21.46;91.18
16580;BME280;8402;51.466;6.806;2022-10-17T11:51:05;101771.34;;;21.48;91.10
16580;BME280;8402;51.466;6.806;2022-10-17T11:53:58;101767.94;;;21.55;91.32
16580;BME280;8402;51.466;6.806;2022-10-17T11:56:34;101767.22;;;21.58;91.27
16580;BME280;8402;51.466;6.806;2022-10-17T11:59:28;101773.38;;;21.51;90.69
16580;BME280;8402;51.466;6.806;2022-10-17T12:02:10;101770.31;;;21.56;90.83
16580;BME280;8402;51.466;6.806;2022-10-17T12:04:50;101765.16;;;21.55;90.61
16580;BME280;8402;51.466;6.806;2022-10-17T12:07:28;101774.25;;;21.55;90.59
16580;BME280;8402;51.466;6.806;2022-10-17T12:10:12;101775.41;;;21.54;89.80
16580;BME280;8402;51.466;6.806;2022-10-17T12:12:44;101777.28;;;21.50;90.33
16580;BME280;8402;51.466;6.806;2022-10-17T12:15:27;101772.50;;;21.47;89.80
16580;BME280;8402;51.466;6.806;2022-10-17T12:17:56;101787.63;;;21.53;90.46
16580;BME280;8402;51.466;6.806;2022-10-17T12:20:30;101783.69;;;21.54;90.60
16580;BME280;8402;51.466;6.806;2022-10-17T12:23:04;101786.81;;;21.53;90.19
16580;BME280;8402;51.466;6.806;2022-10-17T12:25:35;101773.81;;;21.53;90.11
16580;BME280;8402;51.466;6.806;2022-10-17T12:28:15;101772.94;;;21.49;89.71
16580;BME280;8402;51.466;6.806;2022-10-17T12:30:55;101779.19;;;21.46;89.56
16580;BME280;8402;51.466;6.806;2022-10-17T12:33:29;101778.03;;;21.47;90.25
16580;BME280;8402;51.466;6.806;2022-10-17T12:42:43;101791.25;;;21.38;90.76
16580;BME280;8402;51.466;6.806;2022-10-17T12:45:48;101797.94;;;21.37;90.40
16580;BME280;8402;51.466;6.806;2022-10-17T12:51:21;101796.63;;;21.31;90.90
16580;BME280;8402;51.466;6.806;2022-10-17T12:54:10;101802.03;;;21.27;91.00
16580;BME280;8402;51.466;6.806;2022-10-17T12:56:40;101797.31;;;21.28;91.16
16580;BME280;8402;51.466;6.806;2022-10-17T12:59:14;101796.88;;;21.26;91.26
16580;BME280;8402;51.466;6.806;2022-10-17T13:01:45;101796.16;;;21.29;91.61
16580;BME280;8402;51.466;6.806;2022-10-17T13:04:14;101804.44;;;21.29;91.80
16580;BME280;8402;51.466;6.806;2022-10-17T13:06:45;101802.84;;;21.28;91.54
16580;BME280;8402;51.466;6.806;2022-10-17T13:09:21;101804.34;;;21.25;91.24
16580;BME280;8402;51.466;6.806;2022-10-17T13:11:51;101806.75;;;21.27;91.74
16580;BME280;8402;51.466;6.806;2022-10-17T13:14:22;101810.66;;;21.26;91.87
16580;BME280;8402;51.466;6.806;2022-10-17T13:16:53;101810.66;;;21.26;91.76
16580;BME280;8402;51.466;6.806;2022-10-17T13:19:23;101813.00;;;21.24;91.63
16580;BME280;8402;51.466;6.806;2022-10-17T13:21:53;101822.44;;;21.23;91.79
16580;BME280;8402;51.466;6.806;2022-10-17T13:24:31;101824.41;;;21.22;91.87
16580;BME280;8402;51.466;6.806;2022-10-17T13:27:00;101830.25;;;21.21;92.13
16580;BME280;8402;51.466;6.806;2022-10-17T13:29:29;101830.56;;;21.15;91.76
16580;BME280;8402;51.466;6.806;2022-10-17T13:31:59;101830.19;;;21.17;91.95
16580;BME280;8402;51.466;6.806;2022-10-17T13:34:30;101836.88;;;21.16;91.69